Latest Weather Observations for Broome

IDW60801

Issued at 12:05 pm WST Tuesday 2 September 2014 (issued every 30 minutes, with the page automatically refreshed every 10 minutes)

About weather observations | Map of weather stations | Latest weather observations for WA | Other Formats
Station Details ID: 003003 Name: BROOME AIRPORT Lat: -17.95 Lon: 122.24 Height: 7.42 m
Data from the previous 72 hours. | See also: Recent months at Broome
Date/Time
WST
Temp
°C
App
Temp
°C
Dew
Point
Rel
Hum
%
Delta-T
°C
Wind Press
QNH
hPa
Press
MSL
hPa
Rain
since 9 am
mm
Dir
 
Spd
km/h
Gust
km/h
Spd
kts
Gust
kts
02/12:00pm 35.9 29.6 -10.7 4 19.5 ENE 17 24 9 13 1014.0 1013.9 0.0
02/11:30am 34.1 30.2 3.5 14 15.9 ESE 13 22 7 12 1014.6 - 0.0
02/11:00am 32.2 29.1 5.7 19 14.1 ESE 11 17 6 9 1015.3 - 0.0
02/10:30am 30.0 27.4 7.8 25 12.1 SE 11 15 6 8 1015.9 - 0.0
02/10:00am 29.3 28.2 11.9 34 10.1 ESE 9 11 5 6 1016.2 - 0.0
02/09:30am 26.3 25.4 12.5 42 8.0 SE 9 13 5 7 1016.5 - 0.0
02/09:00am 23.9 21.9 10.3 42 7.5 ESE 11 15 6 8 1016.5 1016.4 0.2
02/08:30am 21.8 21.3 13.7 60 4.7 ESE 9 13 5 7 1016.5 - 0.2
02/08:00am 19.6 20.8 17.3 86 1.4 E 7 9 4 5 1016.3 - 0.2
02/07:30am 17.2 18.2 16.9 98 0.2 E 7 13 4 7 1016.3 - 0.2
02/07:24am 17.1 19.1 16.9 99 0.1 ENE 2 11 1 6 1016.2 - 0.2
02/07:11am 16.1 17.8 16.1 100 0.0 ENE 2 7 1 4 1015.9 - 0.2
02/07:05am 15.4 16.0 15.4 100 0.0 NE 6 7 3 4 1015.8 - 0.2
02/07:00am 15.1 15.6 14.9 99 0.1 NE 6 9 3 5 1015.8 - 0.2
02/06:52am 14.9 15.3 14.7 99 0.1 NE 6 9 3 5 1015.7 - 0.2
02/06:30am 14.7 14.5 14.7 100 0.0 NNE 9 11 5 6 1015.5 - 0.0
02/06:03am 14.9 15.4 14.9 100 0.0 NNE 6 7 3 4 1015.3 - 0.0
02/06:00am 14.9 15.4 14.9 100 0.0 NNE 6 7 3 4 1015.3 1015.2 -
02/05:58am 14.9 15.4 14.9 100 0.0 NNE 6 7 3 4 1015.3 - 0.0
02/05:30am 15.0 16.6 15.0 100 0.0 CALM 0 - 0 - 1014.9 - 0.0
02/05:21am 16.2 18.3 16.2 100 0.0 CALM 0 - 0 - 1014.9 - 0.0
02/05:20am 16.1 18.1 16.1 100 0.0 CALM 0 0 0 0 1014.8 - 0.0
02/05:00am 18.5 20.4 18.5 100 0.0 SE 6 9 3 5 1014.7 - 0.0
02/04:30am 18.7 20.5 18.7 100 0.0 SE 7 13 4 7 1014.6 - 0.0
02/04:00am 18.6 19.9 18.4 99 0.1 SE 9 13 5 7 1014.5 - 0.0
02/03:30am 14.8 16.3 14.6 99 0.1 CALM 0 - 0 - 1014.2 - 0.0
02/03:00am 13.7 14.8 13.5 99 0.1 CALM 0 - 0 - 1014.2 1014.1 0.0
02/02:30am 12.9 13.8 12.9 100 0.0 CALM 0 - 0 - 1014.1 - 0.0
02/02:13am 13.0 13.0 12.4 96 0.3 NNE 4 6 2 3 1014.1 - 0.0
02/02:07am 13.0 13.0 12.4 96 0.3 NNE 4 6 2 3 1014.1 - 0.0
02/02:00am 13.3 13.4 12.7 96 0.3 NNE 4 6 2 3 1014.1 - 0.0
02/01:50am 13.0 12.4 12.4 96 0.3 NNE 7 9 4 5 1014.2 - 0.0
02/01:30am 12.9 13.6 12.2 95 0.4 CALM 0 - 0 - 1014.3 - 0.0
02/01:28am 12.9 13.6 12.3 96 0.3 CALM 0 0 0 0 1014.3 - 0.0
02/01:00am 13.9 15.0 13.5 97 0.2 CALM 0 0 0 0 1014.6 - 0.0
02/12:30am 14.7 16.1 14.5 99 0.1 CALM 0 0 0 0 1014.9 - 0.0
02/12:17am 14.9 16.3 14.4 97 0.3 CALM 0 0 0 0 1015.1 - 0.0
02/12:05am 14.3 15.5 13.9 97 0.2 CALM 0 0 0 0 1015.2 - 0.0
02/12:00am 14.7 16.0 14.0 96 0.4 N 0 0 0 0 1015.3 1015.2 0.0
 
Date/Time
WST
Temp
°C
App
Temp
°C
Dew
Point
Rel
Hum
%
Delta-T
°C
Wind Press
QNH
hPa
Press
MSL
hPa
Rain
since 9 am
mm
Dir
 
Spd
km/h
Gust
km/h
Spd
kts
Gust
kts
01/11:30pm 15.1 16.5 14.4 96 0.4 CALM 0 0 0 0 1015.4 - 0.0
01/11:00pm 15.8 17.5 15.1 96 0.4 CALM 0 0 0 0 1015.5 - 0.0
01/10:30pm 17.1 18.0 16.1 94 0.6 N 6 7 3 4 1015.5 - 0.0
01/10:00pm 16.9 17.8 16.2 96 0.4 N 6 9 3 5 1015.6 - 0.0
01/09:30pm 17.6 19.9 16.8 95 0.5 CALM 0 0 0 0 1015.6 - 0.0
01/09:00pm 17.7 18.7 16.9 95 0.5 N 7 9 4 5 1015.5 1015.4 0.0
01/08:30pm 19.6 21.3 18.5 93 0.7 NNW 7 9 4 5 1015.4 - 0.0
01/08:00pm 20.2 22.0 18.4 89 1.1 WNW 6 7 3 4 1015.3 - 0.0
01/07:30pm 21.5 23.6 19.3 87 1.4 NW 7 9 4 5 1014.8 - 0.0
01/07:00pm 21.7 24.3 19.3 86 1.5 NW 4 9 2 5 1014.5 - 0.0
01/06:30pm 22.1 24.3 19.3 84 1.8 NNW 6 9 3 5 1014.1 - 0.0
01/06:00pm 23.0 24.2 19.1 78 2.5 NNW 11 15 6 8 1013.8 1013.7 0.0
01/05:30pm 23.9 24.6 18.9 73 3.2 NNW 13 17 7 9 1013.5 - 0.0
01/05:00pm 24.9 24.9 18.1 66 4.3 NW 15 24 8 13 1013.2 - 0.0
01/04:30pm 25.6 24.9 17.3 60 5.2 WNW 17 24 9 13 1013.0 - 0.0
01/04:00pm 26.0 25.4 18.4 63 4.8 NW 19 26 10 14 1012.7 - 0.0
01/03:30pm 26.3 25.2 17.3 57 5.6 NW 19 30 10 16 1012.7 - 0.0
01/03:00pm 27.5 25.1 15.4 47 7.4 W 22 30 12 16 1012.4 1012.3 0.0
01/02:30pm 26.7 24.3 16.5 53 6.3 W 24 30 13 16 1012.5 - 0.0
01/02:00pm 27.7 24.8 15.2 46 7.6 W 24 30 13 16 1012.5 - 0.0
01/01:30pm 27.2 24.4 14.3 45 7.7 W 22 30 12 16 1012.9 - 0.0
01/01:00pm 27.8 23.9 9.4 31 10.2 W 20 32 11 17 1013.3 - 0.0
01/12:30pm 28.3 24.2 8.8 29 10.7 W 20 26 11 14 1013.9 - 0.0
01/12:00pm 27.8 23.5 7.2 27 11.0 W 19 24 10 13 1014.3 1014.2 0.0
01/11:30am 27.6 23.6 6.5 26 11.1 W 17 20 9 11 1014.8 - 0.0
01/11:00am 29.4 26.1 6.4 23 12.2 W 13 17 7 9 1015.2 - 0.0
01/10:30am 30.2 25.2 -8.1 8 15.9 SSW 11 15 6 8 1015.6 - 0.0
01/10:00am 28.4 25.0 -0.9 15 13.6 SSE 7 11 4 6 1015.8 - 0.0
01/09:30am 26.3 23.0 2.4 21 11.6 S 9 15 5 8 1015.8 - 0.0
01/09:00am 24.1 21.4 5.5 30 9.4 ESE 9 11 5 6 1015.7 1015.6 0.2
01/08:30am 22.9 19.8 3.4 28 9.4 ESE 9 11 5 6 1015.6 - 0.0
01/08:00am 20.3 19.8 10.8 54 5.2 E 4 7 2 4 1015.3 - 0.0
01/07:30am 18.0 18.8 12.4 70 3.1 CALM 0 0 0 0 1015.1 - 0.0
01/07:00am 15.9 16.8 13.0 83 1.6 CALM 0 0 0 0 1014.9 - 0.0
01/06:30am 12.9 13.6 12.3 96 0.3 CALM 0 0 0 0 1014.7 - 0.0
01/06:00am 11.9 12.4 11.7 99 0.1 CALM 0 0 0 0 1014.5 1014.4 0.0
01/05:30am 12.3 13.0 12.1 99 0.1 CALM 0 0 0 0 1014.3 - 0.0
01/05:00am 12.7 12.7 12.3 97 0.2 NNE 4 6 2 3 1013.9 - 0.0
01/04:30am 13.0 12.2 12.8 99 0.1 NNE 9 11 5 6 1013.8 - 0.0
01/04:21am 12.9 12.0 12.5 97 0.2 NNE 9 11 5 6 1013.8 - 0.0
01/04:07am 12.8 11.9 12.6 99 0.1 N 9 11 5 6 1013.8 - 0.0
01/04:04am 12.7 11.8 12.5 99 0.1 N 9 11 5 6 1013.8 - 0.0
01/04:00am 13.1 12.7 12.9 99 0.1 N 7 11 4 6 1013.7 - 0.0
01/03:30am 13.9 15.1 13.7 99 0.1 CALM 0 - 0 - 1013.6 - 0.0
01/03:01am 14.2 15.0 13.8 97 0.2 N 2 6 1 3 1013.6 - 0.0
01/03:00am 14.3 15.1 13.8 97 0.3 N 2 6 1 3 1013.6 1013.5 0.0
01/02:48am 14.0 14.0 13.5 97 0.3 N 6 6 3 3 1013.6 - 0.0
01/02:37am 13.3 13.1 12.9 97 0.2 N 6 7 3 4 1013.6 - 0.0
01/02:30am 13.3 12.9 12.9 97 0.2 NNE 7 7 4 4 1013.6 - 0.0
01/02:22am 13.1 12.2 12.5 96 0.3 NNE 9 11 5 6 1013.6 - 0.0
01/02:00am 13.6 14.6 13.2 97 0.2 CALM 0 0 0 0 1013.6 - 0.0
01/01:36am 13.5 14.5 13.3 99 0.1 CALM 0 0 0 0 1013.5 - 0.0
01/01:32am 13.9 15.0 13.4 97 0.3 CALM 0 0 0 0 1013.5 - 0.0
01/01:29am 13.8 14.8 13.3 97 0.3 CALM 0 0 0 0 1013.5 - 0.0
01/01:26am 13.9 14.8 13.0 94 0.5 CALM 0 - 0 - 1013.5 - 0.0
01/01:07am 13.7 14.7 13.3 97 0.2 CALM 0 - 0 - 1013.6 - 0.0
01/01:00am 14.1 15.3 13.7 97 0.2 CALM 0 0 0 0 1013.6 - 0.0
01/12:54am 13.9 15.0 13.5 97 0.2 CALM 0 - 0 - 1013.5 - 0.0
01/12:41am 14.1 15.3 13.9 99 0.1 CALM 0 - 0 - 1013.6 - 0.0
01/12:30am 14.5 15.8 14.1 97 0.2 CALM 0 - 0 - 1013.7 - 0.0
01/12:23am 14.3 15.5 13.9 97 0.2 CALM 0 - 0 - 1013.7 - 0.0
01/12:19am 14.5 15.7 13.8 96 0.4 CALM 0 - 0 - 1013.7 - 0.0
01/12:13am 14.4 15.6 13.7 96 0.4 CALM 0 - 0 - 1013.7 - 0.0
01/12:11am 14.4 15.6 13.7 96 0.4 CALM 0 - 0 - 1013.8 - 0.0
01/12:06am 14.2 15.5 14.2 100 0.0 CALM 0 - 0 - 1013.8 - 0.0
01/12:00am 15.0 16.4 14.5 97 0.3 CALM 0 0 0 0 1013.8 1013.7 0.0
 
Date/Time
WST
Temp
°C
App
Temp
°C
Dew
Point
Rel
Hum
%
Delta-T
°C
Wind Press
QNH
hPa
Press
MSL
hPa
Rain
since 9 am
mm
Dir
 
Spd
km/h
Gust
km/h
Spd
kts
Gust
kts
31/11:30pm 15.1 16.6 14.6 97 0.3 CALM 0 0 0 0 1013.9 - 0.0
31/11:00pm 16.3 18.1 15.4 94 0.5 CALM 0 0 0 0 1014.2 - 0.0
31/10:30pm 19.3 21.7 18.7 96 0.4 S 4 6 2 3 1014.2 - 0.0
31/10:00pm 20.7 23.3 20.1 96 0.4 S 6 7 3 4 1014.2 - 0.0
31/09:30pm 20.8 23.4 20.0 95 0.5 SW 6 7 3 4 1014.1 - 0.0
31/09:00pm 20.7 23.0 19.9 95 0.5 WNW 7 11 4 6 1014.0 1013.9 0.0
31/08:30pm 21.3 23.7 20.1 93 0.8 WNW 7 9 4 5 1013.9 - 0.0
31/08:00pm 21.9 24.0 20.2 90 1.1 NW 9 13 5 7 1013.7 - 0.0
31/07:30pm 22.1 24.0 19.8 87 1.5 NNW 9 15 5 8 1013.4 - 0.0
31/07:00pm 22.4 23.5 19.6 84 1.8 NW 13 15 7 8 1013.1 - 0.0
31/06:30pm 22.8 23.5 18.0 74 3.0 NNW 11 15 6 8 1012.9 - 0.0
31/06:00pm 23.7 22.4 12.5 49 6.4 NNW 11 13 6 7 1012.6 1012.5 0.0
31/05:30pm 25.5 24.1 12.3 43 7.6 NW 11 15 6 8 1012.4 - 0.0
31/05:00pm 27.0 25.2 10.7 36 9.2 NW 11 17 6 9 1012.2 - 0.0
31/04:30pm 28.2 24.6 6.7 25 11.4 WNW 15 22 8 12 1012.1 - 0.0
31/04:00pm 29.3 24.9 2.5 18 13.3 WNW 15 22 8 12 1011.9 - 0.0
31/03:30pm 29.7 25.0 3.0 18 13.4 WNW 17 24 9 13 1011.8 - 0.0
31/03:00pm 28.9 25.0 10.8 32 10.3 NW 22 33 12 18 1011.8 1011.7 0.0
31/02:30pm 29.4 25.2 9.9 29 11.0 NW 22 32 12 17 1011.6 - 0.0
31/02:00pm 32.0 28.8 3.3 16 14.7 S 9 15 5 8 1011.5 - 0.0
31/01:30pm 32.3 27.3 1.2 14 15.4 SSE 17 22 9 12 1011.9 - 0.0
31/01:00pm 32.2 26.0 -3.4 10 16.3 SSE 20 28 11 15 1012.4 - 0.0
31/12:30pm 32.4 27.1 -3.3 10 16.4 SSE 15 20 8 11 1013.0 - 0.0
31/12:00pm 32.5 27.1 -4.1 9 16.6 SSE 15 20 8 11 1013.3 1013.2 0.0
31/11:30am 31.9 27.3 -1.2 12 15.7 SE 13 17 7 9 1013.7 - 0.0
31/11:00am 30.4 26.3 -0.2 14 14.6 SSE 11 17 6 9 1014.4 - 0.0
31/10:30am 28.7 25.6 3.7 20 12.6 SSE 9 13 5 7 1014.8 - 0.0
31/10:00am 27.0 25.3 9.7 33 9.6 ESE 9 20 5 11 1015.2 - 0.0
31/09:30am 27.1 24.6 4.0 22 11.6 E 6 9 3 5 1015.4 - 0.0
31/09:00am 23.7 21.0 5.4 30 9.2 ESE 9 13 5 7 1015.7 1015.6 0.0
31/08:30am 21.9 19.5 6.8 37 7.7 SE 9 17 5 9 1015.6 - 0.0
31/08:00am 20.2 18.9 11.1 56 5.0 ESE 9 13 5 7 1015.4 - 0.0
31/07:30am 18.6 19.2 11.9 65 3.7 CALM 0 0 0 0 1015.1 - 0.0
31/07:00am 15.2 16.4 13.8 91 0.8 CALM 0 0 0 0 1015.0 - 0.0
31/06:30am 11.4 11.6 10.6 95 0.4 CALM 0 0 0 0 1014.8 - 0.0
31/06:00am 10.4 10.3 9.6 95 0.4 CALM 0 0 0 0 1014.5 1014.4 0.0
31/05:30am 10.8 11.0 10.4 97 0.2 CALM 0 0 0 0 1014.3 - 0.0
31/05:10am 11.0 10.8 10.4 96 0.3 N 2 6 1 3 1014.2 - 0.0
31/05:00am 11.0 10.1 10.6 97 0.2 N 6 7 3 4 1014.1 - 0.0
31/04:30am 11.6 10.9 11.4 99 0.1 N 6 7 3 4 1014.0 - 0.0
31/04:00am 12.2 11.5 11.4 95 0.4 NNE 6 7 3 4 1013.9 - 0.0
31/03:30am 12.1 11.5 11.7 97 0.2 NNE 6 7 3 4 1013.9 - 0.0
31/03:12am 12.7 13.4 12.1 96 0.3 CALM 0 - 0 - 1013.7 - 0.0
31/03:11am 12.6 13.2 11.8 95 0.4 CALM 0 - 0 - 1013.7 - 0.0
31/03:02am 12.1 12.7 11.9 99 0.1 CALM 0 - 0 - 1013.7 - 0.0
31/03:00am 12.8 13.5 12.1 95 0.4 CALM 0 0 0 0 1013.7 1013.6 0.0
31/02:30am 12.3 12.8 11.5 95 0.4 CALM 0 0 0 0 1013.8 - 0.0
31/02:00am 12.7 13.4 12.1 96 0.3 CALM 0 0 0 0 1013.9 - 0.0
31/01:30am 13.0 13.3 12.3 95 0.4 N 2 9 1 5 1014.1 - 0.0
31/01:00am 14.2 15.2 13.3 94 0.5 CALM 0 0 0 0 1014.1 - 0.0
31/12:30am 14.3 14.2 13.4 94 0.5 N 6 9 3 5 1014.4 - 0.0
31/12:00am 14.6 15.8 13.9 96 0.4 CALM 0 0 0 0 1014.7 1014.6 0.0
 
Date/Time
WST
Temp
°C
App
Temp
°C
Dew
Point
Rel
Hum
%
Delta-T
°C
Wind Press
QNH
hPa
Press
MSL
hPa
Rain
since 9 am
mm
Dir
 
Spd
km/h
Gust
km/h
Spd
kts
Gust
kts
30/11:30pm 15.3 16.3 14.4 94 0.5 N 2 6 1 3 1015.0 - 0.0
30/11:00pm 14.6 14.5 13.3 92 0.7 NNE 6 11 3 6 1015.2 - 0.0
30/10:30pm 15.8 17.2 14.4 91 0.8 CALM 0 0 0 0 1015.3 - 0.0
30/10:00pm 16.6 18.0 14.5 87 1.2 CALM 0 0 0 0 1015.4 - 0.0
30/09:30pm 18.6 19.8 16.8 89 1.1 W 6 9 3 5 1015.3 - 0.0
30/09:00pm 19.1 19.9 15.9 82 1.9 W 6 7 3 4 1015.2 1015.1 0.0
30/08:30pm 19.2 21.2 16.0 82 1.9 CALM 0 0 0 0 1015.1 - 0.0
30/08:00pm 22.1 21.8 16.5 70 3.4 NW 13 17 7 9 1014.9 - 0.0
30/07:30pm 21.3 21.8 16.5 74 2.9 NNW 9 11 5 6 1014.7 - 0.0
30/07:00pm 22.0 22.5 15.5 66 3.9 NW 7 9 4 5 1014.4 - 0.0
30/06:30pm 23.0 22.4 14.5 58 5.0 NW 11 15 6 8 1014.0 - 0.0
30/06:00pm 24.0 22.4 11.6 45 7.0 NNW 11 15 6 8 1013.7 1013.6 0.0
30/05:30pm 25.9 21.7 5.6 27 10.4 NW 17 22 9 12 1013.4 - 0.0
30/05:00pm 27.4 22.7 2.9 20 12.1 NW 17 24 9 13 1013.3 - 0.0
30/04:30pm 28.3 23.4 2.2 18 12.8 NW 17 20 9 11 1013.2 - 0.0
30/04:00pm 29.3 23.9 2.5 18 13.3 NW 20 28 11 15 1013.1 - 0.0
30/03:30pm 29.6 24.1 4.2 20 13.0 NW 22 33 12 18 1012.8 - 0.0
30/03:00pm 30.1 24.3 4.6 20 13.2 NNW 24 39 13 21 1012.5 1012.4 0.0
30/02:30pm 33.5 26.9 -9.7 6 18.0 ESE 19 24 10 13 1012.2 - 0.0
30/02:00pm 33.7 28.6 -8.8 6 18.0 E 11 19 6 10 1012.5 - 0.0
30/01:30pm 33.0 27.0 -11.4 5 17.9 E 15 22 8 12 1013.0 - 0.0
30/01:00pm 32.5 25.8 -8.0 7 17.2 SE 20 28 11 15 1013.4 - 0.0
30/12:30pm 33.1 26.6 -7.7 7 17.5 ESE 19 28 10 15 1013.9 - 0.0

Other Formats:

Comma delimited format used in spreadsheet applications
http://www.bom.gov.au/fwo/IDW60801/IDW60801.94203.axf

JavaScript Object Notation format (JSON) in row-major order
http://www.bom.gov.au/fwo/IDW60801/IDW60801.94203.json